createdAt,value
2019-03-29T00:00:54.806Z,9.60
2019-03-29T00:03:25.646Z,9.60
2019-03-29T00:05:56.567Z,9.60
2019-03-29T00:08:27.422Z,9.60
2019-03-29T00:10:58.422Z,9.70
2019-03-29T00:13:29.291Z,9.60
2019-03-29T00:16:00.305Z,9.60
2019-03-29T00:18:31.166Z,9.70
2019-03-29T00:21:02.050Z,9.70
2019-03-29T00:23:32.932Z,9.70
2019-03-29T00:26:03.954Z,9.70
2019-03-29T00:28:34.767Z,9.60
2019-03-29T00:31:05.747Z,9.70
2019-03-29T00:33:36.664Z,9.70
2019-03-29T00:36:07.569Z,9.70
2019-03-29T00:38:38.434Z,9.70
2019-03-29T00:41:09.332Z,9.70
2019-03-29T00:43:40.651Z,9.70
2019-03-29T00:46:12.008Z,9.60
2019-03-29T00:48:42.860Z,9.60
2019-03-29T00:51:13.722Z,9.60
2019-03-29T00:53:44.570Z,9.60
2019-03-29T00:56:15.448Z,9.70
2019-03-29T00:58:46.320Z,9.60
2019-03-29T01:01:17.218Z,9.60
2019-03-29T01:03:48.122Z,9.60
2019-03-29T01:06:19.004Z,9.70
2019-03-29T01:08:49.889Z,9.60
2019-03-29T01:11:21.773Z,9.70
2019-03-29T01:13:52.630Z,9.60
2019-03-29T01:16:23.524Z,9.60
2019-03-29T01:18:54.462Z,9.60
2019-03-29T01:21:25.359Z,9.40
2019-03-29T01:23:56.298Z,9.50
2019-03-29T01:26:27.413Z,9.40
2019-03-29T01:28:58.237Z,9.50
2019-03-29T01:31:29.163Z,9.50
2019-03-29T01:34:00.018Z,9.50
2019-03-29T01:36:31.915Z,9.60
2019-03-29T01:39:02.929Z,9.50
2019-03-29T01:41:33.889Z,9.50
2019-03-29T01:44:04.830Z,9.50
2019-03-29T01:46:35.732Z,9.50
2019-03-29T01:49:06.569Z,9.60
2019-03-29T01:51:37.465Z,9.60
2019-03-29T01:54:09.278Z,9.60
2019-03-29T01:56:40.866Z,9.60
2019-03-29T01:59:11.728Z,9.70
2019-03-29T02:01:42.624Z,9.50
2019-03-29T02:04:13.508Z,9.50
2019-03-29T02:06:45.097Z,9.50
2019-03-29T02:09:16.566Z,9.50
2019-03-29T02:11:47.538Z,9.50
2019-03-29T02:14:18.415Z,9.50
2019-03-29T02:16:50.272Z,9.50
2019-03-29T02:19:21.143Z,9.50
2019-03-29T02:21:52.060Z,9.50
2019-03-29T02:24:23.289Z,9.50
2019-03-29T02:26:54.885Z,9.60
2019-03-29T02:29:25.758Z,9.50
2019-03-29T02:31:57.098Z,9.60
2019-03-29T02:34:28.061Z,9.50
2019-03-29T02:36:59.012Z,9.50
2019-03-29T02:39:29.873Z,9.50
2019-03-29T02:42:00.799Z,9.50
2019-03-29T02:44:31.686Z,9.50
2019-03-29T02:47:02.607Z,9.50
2019-03-29T02:49:33.497Z,9.50
2019-03-29T02:52:04.450Z,9.60
2019-03-29T02:54:35.285Z,9.50
2019-03-29T02:57:06.273Z,9.50
2019-03-29T02:59:37.634Z,9.50
2019-03-29T03:02:08.536Z,9.40
2019-03-29T03:04:39.398Z,9.40
2019-03-29T03:07:10.371Z,9.40
2019-03-29T03:09:41.315Z,9.50
2019-03-29T03:12:12.223Z,9.40
2019-03-29T03:14:43.061Z,9.30
2019-03-29T03:19:43.870Z,9.40
2019-03-29T03:22:14.789Z,9.30
2019-03-29T03:24:45.634Z,9.30
2019-03-29T03:29:48.417Z,9.00
2019-03-29T03:32:18.965Z,9.30
2019-03-29T03:34:49.848Z,9.30
2019-03-29T03:37:20.687Z,9.20
2019-03-29T03:39:51.553Z,9.10
2019-03-29T03:42:22.452Z,9.20
2019-03-29T03:44:54.432Z,9.20
2019-03-29T03:47:25.335Z,9.20
2019-03-29T03:50:00.478Z,9.10
2019-03-29T03:52:28.787Z,9.10
2019-03-29T03:54:59.672Z,9.10
2019-03-29T03:57:30.809Z,9.10
2019-03-29T04:00:02.375Z,9.20
2019-03-29T04:02:33.316Z,9.20
2019-03-29T04:05:04.170Z,9.10
2019-03-29T04:07:35.027Z,9.20
2019-03-29T04:10:07.318Z,9.20
2019-03-29T04:12:38.243Z,9.10
2019-03-29T04:15:09.097Z,9.10
2019-03-29T04:17:39.985Z,9.10
2019-03-29T04:20:10.923Z,9.10
2019-03-29T04:22:41.805Z,9.10
2019-03-29T04:25:12.647Z,9.20
2019-03-29T04:27:43.517Z,9.20
2019-03-29T04:30:14.432Z,9.20
2019-03-29T04:32:45.317Z,9.20
2019-03-29T04:35:16.203Z,9.20
2019-03-29T04:37:47.059Z,9.10
2019-03-29T04:40:17.902Z,9.20
2019-03-29T04:42:48.798Z,9.20
2019-03-29T04:45:19.676Z,9.20
2019-03-29T04:47:50.566Z,9.20
2019-03-29T04:50:21.430Z,9.20
2019-03-29T04:52:52.364Z,9.10
2019-03-29T04:55:23.190Z,9.10
2019-03-29T04:57:54.143Z,9.10
2019-03-29T05:00:24.994Z,9.10
2019-03-29T05:02:55.856Z,9.20
2019-03-29T05:05:26.692Z,9.20
2019-03-29T05:07:57.606Z,9.20
2019-03-29T05:10:28.528Z,9.20
2019-03-29T05:12:59.815Z,9.10
2019-03-29T05:15:30.598Z,9.10
2019-03-29T05:18:01.470Z,9.20
2019-03-29T05:20:32.328Z,9.10
2019-03-29T05:23:03.204Z,9.10
2019-03-29T05:25:34.062Z,9.10
2019-03-29T05:28:04.970Z,9.10
2019-03-29T05:30:35.830Z,9.00
2019-03-29T05:33:06.727Z,9.10
2019-03-29T05:35:37.576Z,9.10
2019-03-29T05:38:08.480Z,9.10
2019-03-29T05:40:39.390Z,9.10
2019-03-29T05:43:10.271Z,9.10
2019-03-29T05:45:41.205Z,9.10
2019-03-29T05:48:12.143Z,9.10
2019-03-29T05:50:42.993Z,9.10
2019-03-29T05:53:13.916Z,9.10
2019-03-29T05:55:47.977Z,9.00
2019-03-29T05:58:17.322Z,9.10
2019-03-29T06:00:48.150Z,9.20
2019-03-29T06:03:19.052Z,9.20
2019-03-29T06:05:49.901Z,9.20
2019-03-29T06:08:20.846Z,9.20
2019-03-29T06:10:51.701Z,9.10
2019-03-29T06:13:22.515Z,9.20
2019-03-29T06:15:54.423Z,9.20
2019-03-29T06:18:25.317Z,9.20
2019-03-29T06:20:56.161Z,9.20
2019-03-29T06:23:27.112Z,9.20
2019-03-29T06:25:58.058Z,9.20
2019-03-29T06:28:30.061Z,9.30
2019-03-29T06:31:01.010Z,9.30
2019-03-29T06:33:31.931Z,9.20
2019-03-29T06:36:04.566Z,9.30
2019-03-29T06:38:36.928Z,9.30
2019-03-29T06:41:07.816Z,9.30
2019-03-29T06:43:38.688Z,9.40
2019-03-29T06:46:09.568Z,9.40
2019-03-29T06:48:40.475Z,9.40
2019-03-29T06:51:11.316Z,9.40
2019-03-29T06:53:42.226Z,9.40
2019-03-29T06:56:13.122Z,9.50
2019-03-29T06:58:43.991Z,9.50
2019-03-29T07:01:14.869Z,9.50
2019-03-29T07:03:45.793Z,9.50
2019-03-29T07:06:16.670Z,9.60
2019-03-29T07:08:47.565Z,9.60
2019-03-29T07:11:18.421Z,9.60
2019-03-29T07:13:57.420Z,9.60
2019-03-29T07:16:21.784Z,9.70
2019-03-29T07:18:52.697Z,9.70
2019-03-29T07:21:23.524Z,9.80
2019-03-29T07:23:54.429Z,9.80
2019-03-29T07:26:25.250Z,9.90
2019-03-29T07:28:56.148Z,9.80
2019-03-29T07:31:27.014Z,9.80
2019-03-29T07:33:57.998Z,9.80
2019-03-29T07:36:29.793Z,9.80
2019-03-29T07:39:00.717Z,9.90
2019-03-29T07:41:33.065Z,9.90
2019-03-29T07:44:03.981Z,9.90
2019-03-29T07:46:34.865Z,9.90
2019-03-29T07:49:05.746Z,9.90
2019-03-29T07:51:36.594Z,10.00
2019-03-29T07:54:07.506Z,9.90
2019-03-29T07:56:38.349Z,10.00
2019-03-29T07:59:09.245Z,10.10
2019-03-29T08:01:40.093Z,10.10
2019-03-29T08:04:11.013Z,10.10
2019-03-29T08:09:22.254Z,10.20
2019-03-29T08:11:46.773Z,10.30
2019-03-29T08:14:17.773Z,10.40
2019-03-29T08:16:50.724Z,10.40
2019-03-29T08:19:21.700Z,10.60
2019-03-29T08:21:52.618Z,10.60
2019-03-29T08:24:23.564Z,10.60
2019-03-29T08:26:54.498Z,10.70
2019-03-29T08:29:25.426Z,10.70
2019-03-29T08:31:56.350Z,10.70
2019-03-29T08:34:27.267Z,10.70
2019-03-29T08:36:58.132Z,10.70
2019-03-29T08:39:29.044Z,10.80
2019-03-29T08:42:00.691Z,10.80
2019-03-29T08:44:31.898Z,10.80
2019-03-29T08:47:02.777Z,10.80
2019-03-29T08:49:34.797Z,10.90
2019-03-29T08:52:05.680Z,10.90
2019-03-29T08:54:36.552Z,11.00
2019-03-29T08:57:10.453Z,10.90
2019-03-29T08:59:39.968Z,11.00
2019-03-29T09:02:11.857Z,11.00
2019-03-29T09:04:42.994Z,10.90
2019-03-29T09:07:13.847Z,11.00
2019-03-29T09:09:46.591Z,10.90
2019-03-29T09:12:17.601Z,10.90
2019-03-29T09:14:48.520Z,11.00
2019-03-29T09:17:19.457Z,10.90
2019-03-29T09:19:50.632Z,10.90
2019-03-29T09:22:21.565Z,10.90
2019-03-29T09:24:52.546Z,10.90
2019-03-29T09:27:23.359Z,11.00
2019-03-29T09:29:54.287Z,10.90
2019-03-29T09:32:25.193Z,11.00
2019-03-29T09:34:56.182Z,11.00
2019-03-29T09:37:27.056Z,11.00
2019-03-29T09:39:57.986Z,11.00
2019-03-29T09:42:30.234Z,11.00
2019-03-29T09:45:01.348Z,11.00
2019-03-29T09:47:39.908Z,11.00
2019-03-29T09:50:05.238Z,10.90
2019-03-29T09:52:36.126Z,11.00
2019-03-29T09:55:07.224Z,11.00
2019-03-29T09:57:38.389Z,11.00
2019-03-29T10:00:19.203Z,11.00
2019-03-29T10:02:42.351Z,11.00
2019-03-29T10:05:13.253Z,10.90
2019-03-29T10:07:44.091Z,10.90
2019-03-29T10:10:15.233Z,10.90
2019-03-29T10:12:46.094Z,10.90
2019-03-29T10:15:16.997Z,10.90
2019-03-29T10:17:47.848Z,10.90
2019-03-29T10:20:18.766Z,11.00
2019-03-29T10:22:49.600Z,11.00
2019-03-29T10:25:20.555Z,11.00
2019-03-29T10:27:51.486Z,11.00
2019-03-29T10:30:40.315Z,11.00
2019-03-29T10:33:11.187Z,11.10
2019-03-29T10:35:51.698Z,11.10
2019-03-29T10:38:18.251Z,11.10
2019-03-29T10:40:48.022Z,11.10
2019-03-29T10:43:18.869Z,11.10
2019-03-29T10:45:49.789Z,11.10
2019-03-29T10:48:20.692Z,11.20
2019-03-29T10:50:51.604Z,11.30
2019-03-29T10:53:22.542Z,11.30
2019-03-29T10:55:53.473Z,11.30
2019-03-29T10:58:24.301Z,11.30
2019-03-29T11:00:55.257Z,11.30
2019-03-29T11:03:28.667Z,11.40
2019-03-29T11:05:58.667Z,11.40
2019-03-29T11:08:29.564Z,11.30
2019-03-29T11:11:00.544Z,11.30
2019-03-29T11:13:31.417Z,11.40
2019-03-29T11:16:02.353Z,11.30
2019-03-29T11:18:33.322Z,11.40
2019-03-29T11:21:05.080Z,11.40
2019-03-29T11:23:35.948Z,11.50
2019-03-29T11:26:06.858Z,11.50
2019-03-29T11:28:37.804Z,11.50
2019-03-29T11:31:08.680Z,11.60
2019-03-29T11:33:40.763Z,11.60
2019-03-29T11:36:11.759Z,11.60
2019-03-29T11:38:42.644Z,11.70
2019-03-29T11:41:13.650Z,11.70
2019-03-29T11:43:44.487Z,11.80
2019-03-29T11:46:15.382Z,11.90
2019-03-29T11:48:46.351Z,11.90
2019-03-29T11:51:19.611Z,12.10
2019-03-29T11:53:51.083Z,12.60
2019-03-29T11:56:22.320Z,12.90
2019-03-29T11:58:53.222Z,12.80
2019-03-29T12:01:24.208Z,12.80
2019-03-29T12:03:55.133Z,12.70
2019-03-29T12:06:26.258Z,12.60
2019-03-29T12:08:57.293Z,12.60
2019-03-29T12:11:28.210Z,12.60
2019-03-29T12:13:59.095Z,12.50
2019-03-29T12:16:30.011Z,12.50
2019-03-29T12:19:00.900Z,12.60
2019-03-29T12:21:31.820Z,12.60
2019-03-29T12:24:02.710Z,12.60
2019-03-29T12:26:33.698Z,12.60
2019-03-29T12:29:04.555Z,12.60
2019-03-29T12:31:35.486Z,12.60
2019-03-29T12:34:06.388Z,12.80
2019-03-29T12:36:37.307Z,12.80
2019-03-29T12:39:08.507Z,12.80
2019-03-29T12:41:39.423Z,12.70
2019-03-29T12:44:10.282Z,12.70
2019-03-29T12:46:41.290Z,12.70
2019-03-29T12:49:12.164Z,12.70
2019-03-29T12:51:46.367Z,12.70
2019-03-29T12:54:15.726Z,12.90
2019-03-29T12:56:46.696Z,12.90
2019-03-29T12:59:17.555Z,12.90
2019-03-29T13:01:48.495Z,12.90
2019-03-29T13:04:19.347Z,12.90
2019-03-29T13:06:50.218Z,13.00
2019-03-29T13:09:21.070Z,13.10
2019-03-29T13:11:51.954Z,13.10
2019-03-29T13:14:22.832Z,13.00
2019-03-29T13:16:53.744Z,13.10
2019-03-29T13:19:24.585Z,13.10
2019-03-29T13:21:55.458Z,13.10
2019-03-29T13:24:26.348Z,13.10
2019-03-29T13:26:57.256Z,13.10
2019-03-29T13:29:28.146Z,13.40
2019-03-29T13:31:59.019Z,13.50
2019-03-29T13:34:29.854Z,13.60
2019-03-29T13:37:00.732Z,13.40
2019-03-29T13:39:31.585Z,13.40
2019-03-29T13:42:02.476Z,13.50
2019-03-29T13:44:33.322Z,13.60
2019-03-29T13:47:05.259Z,13.70
2019-03-29T13:49:36.136Z,13.60
2019-03-29T13:52:07.012Z,13.60
2019-03-29T13:54:37.876Z,13.80
2019-03-29T13:57:08.768Z,13.80
2019-03-29T13:59:39.662Z,13.70
2019-03-29T14:02:10.541Z,13.70
2019-03-29T14:04:42.371Z,13.70
2019-03-29T14:07:13.381Z,13.60
2019-03-29T14:09:44.234Z,13.60
2019-03-29T14:12:15.098Z,13.60
2019-03-29T14:14:45.986Z,13.50
2019-03-29T14:17:16.876Z,13.40
2019-03-29T14:19:47.753Z,13.40
2019-03-29T14:22:18.646Z,13.40
2019-03-29T14:24:49.756Z,13.30
2019-03-29T14:27:20.650Z,13.30
2019-03-29T14:30:03.499Z,13.30
2019-03-29T14:32:24.007Z,13.20
2019-03-29T14:34:54.898Z,13.30
2019-03-29T14:37:26.788Z,13.20
2019-03-29T14:39:57.662Z,13.20
2019-03-29T14:42:28.558Z,13.10
2019-03-29T14:44:59.414Z,13.10
2019-03-29T14:47:41.193Z,13.10
2019-03-29T14:50:02.865Z,13.10
2019-03-29T14:52:33.787Z,13.10
2019-03-29T14:55:04.649Z,13.10
2019-03-29T14:57:35.560Z,13.10
2019-03-29T15:00:07.702Z,13.10
2019-03-29T15:02:38.882Z,13.10
2019-03-29T15:05:10.565Z,13.10
2019-03-29T15:07:43.065Z,13.00
2019-03-29T15:10:28.043Z,13.10
2019-03-29T15:12:59.045Z,13.10
2019-03-29T15:15:30.826Z,13.20
2019-03-29T15:18:01.771Z,13.10
2019-03-29T15:20:32.685Z,13.20
2019-03-29T15:23:03.595Z,13.20
2019-03-29T15:25:34.483Z,13.20
2019-03-29T15:28:05.398Z,13.10
2019-03-29T15:30:36.249Z,13.10
2019-03-29T15:33:07.177Z,13.10
2019-03-29T15:35:38.026Z,13.00
2019-03-29T15:38:08.959Z,13.00
2019-03-29T15:40:39.807Z,13.10
2019-03-29T15:43:10.694Z,13.10
2019-03-29T15:45:41.567Z,13.20
2019-03-29T15:48:12.469Z,13.20
2019-03-29T15:50:43.384Z,13.20
2019-03-29T15:53:14.317Z,13.00
2019-03-29T15:55:45.187Z,13.00
2019-03-29T15:58:16.127Z,13.00
2019-03-29T16:00:46.988Z,12.90
2019-03-29T16:03:17.958Z,12.90
2019-03-29T16:05:48.804Z,12.90
2019-03-29T16:08:19.735Z,12.90
2019-03-29T16:10:50.592Z,12.80
2019-03-29T16:13:21.490Z,12.80
2019-03-29T16:15:52.363Z,12.70
2019-03-29T16:18:23.255Z,12.70
2019-03-29T16:20:54.121Z,12.70
2019-03-29T16:23:25.114Z,12.60
2019-03-29T16:25:56.008Z,12.60
2019-03-29T16:28:26.877Z,12.60
2019-03-29T16:30:57.747Z,12.60
2019-03-29T16:33:28.757Z,12.50
2019-03-29T16:35:59.618Z,12.50
2019-03-29T16:38:30.518Z,12.50
2019-03-29T16:41:01.444Z,12.50
2019-03-29T16:43:32.417Z,12.50
2019-03-29T16:46:03.300Z,12.40
2019-03-29T16:48:34.214Z,12.40
2019-03-29T16:51:05.220Z,12.40
2019-03-29T16:53:36.184Z,12.40
2019-03-29T16:56:07.059Z,12.30
2019-03-29T16:58:38.107Z,12.30
2019-03-29T17:01:12.014Z,12.30
2019-03-29T17:03:42.894Z,12.30
2019-03-29T17:06:14.043Z,12.20
2019-03-29T17:08:45.940Z,12.20
2019-03-29T17:11:16.819Z,12.20
2019-03-29T17:13:47.727Z,12.20
2019-03-29T17:16:29.863Z,12.10
2019-03-29T17:18:51.147Z,12.00
2019-03-29T17:21:22.104Z,12.10
2019-03-29T17:23:53.179Z,12.00
2019-03-29T17:26:24.065Z,12.00
2019-03-29T17:28:54.977Z,12.00
2019-03-29T17:31:25.826Z,11.90
2019-03-29T17:33:56.759Z,11.90
2019-03-29T17:36:27.651Z,11.80
2019-03-29T17:38:58.632Z,11.80
2019-03-29T17:41:29.530Z,11.80
2019-03-29T17:44:00.431Z,11.80
2019-03-29T17:46:31.283Z,11.70
2019-03-29T17:49:03.191Z,11.60
2019-03-29T17:51:34.151Z,11.70
2019-03-29T17:54:04.983Z,11.60
2019-03-29T17:56:36.838Z,11.60
2019-03-29T17:59:07.760Z,11.50
2019-03-29T18:01:39.475Z,11.40
2019-03-29T18:04:10.418Z,11.30
2019-03-29T18:06:41.583Z,11.20
2019-03-29T18:09:12.507Z,11.20
2019-03-29T18:11:43.351Z,11.20
2019-03-29T18:14:15.309Z,11.20
2019-03-29T18:16:46.293Z,11.20
2019-03-29T18:19:18.213Z,11.10
2019-03-29T18:21:49.593Z,11.00
2019-03-29T18:24:20.585Z,10.90
2019-03-29T18:26:51.431Z,10.90
2019-03-29T18:29:22.378Z,10.90
2019-03-29T18:31:54.390Z,10.90
2019-03-29T18:34:26.198Z,10.90
2019-03-29T18:36:58.872Z,10.80
2019-03-29T18:39:30.165Z,10.80
2019-03-29T18:42:01.233Z,10.70
2019-03-29T18:44:32.157Z,10.70
2019-03-29T18:47:03.061Z,10.60
2019-03-29T18:49:34.046Z,10.60
2019-03-29T18:52:04.995Z,10.50
2019-03-29T18:54:35.925Z,10.50
2019-03-29T18:57:06.815Z,10.40
2019-03-29T18:59:37.739Z,10.30
2019-03-29T19:02:08.637Z,10.30
2019-03-29T19:04:39.571Z,10.20
2019-03-29T19:07:10.517Z,10.20
2019-03-29T19:09:41.495Z,10.10
2019-03-29T19:12:13.449Z,10.00
2019-03-29T19:14:44.523Z,10.00
2019-03-29T19:17:15.411Z,9.90
2019-03-29T19:19:46.328Z,9.90
2019-03-29T19:22:17.338Z,9.90
2019-03-29T19:24:48.264Z,9.80
2019-03-29T19:27:19.315Z,9.80
2019-03-29T19:29:50.263Z,9.70
2019-03-29T19:32:21.118Z,9.60
2019-03-29T19:34:52.064Z,9.60
2019-03-29T19:37:22.953Z,9.50
2019-03-29T19:39:53.950Z,9.40
2019-03-29T19:42:24.821Z,9.50
2019-03-29T19:44:55.800Z,9.50
2019-03-29T19:47:27.670Z,9.40
2019-03-29T19:49:58.561Z,9.30
2019-03-29T19:52:29.480Z,9.20
2019-03-29T19:55:01.435Z,9.20
2019-03-29T19:57:32.809Z,9.20
2019-03-29T20:00:06.178Z,9.20
2019-03-29T20:02:36.929Z,9.20
2019-03-29T20:05:13.331Z,9.10
2019-03-29T20:07:44.193Z,9.10
2019-03-29T20:10:15.161Z,9.10
2019-03-29T20:12:46.035Z,9.10
2019-03-29T20:17:46.915Z,9.10
2019-03-29T20:20:23.608Z,8.90
2019-03-29T20:22:55.952Z,9.00
2019-03-29T20:25:27.013Z,8.90
2019-03-29T20:27:58.882Z,9.00
2019-03-29T20:30:29.789Z,9.00
2019-03-29T20:33:00.775Z,9.00
2019-03-29T20:35:31.683Z,8.90
2019-03-29T20:38:02.667Z,8.70
2019-03-29T20:40:33.585Z,8.70
2019-03-29T20:43:04.487Z,8.70
2019-03-29T20:45:35.443Z,8.70
2019-03-29T20:48:06.321Z,8.60
2019-03-29T20:50:37.243Z,8.50
2019-03-29T20:53:08.185Z,8.40
2019-03-29T20:55:39.130Z,8.50
2019-03-29T20:58:10.113Z,8.40
2019-03-29T21:00:41.024Z,8.50
2019-03-29T21:03:11.898Z,8.40
2019-03-29T21:05:42.947Z,8.40
2019-03-29T21:08:13.938Z,8.30
2019-03-29T21:10:55.420Z,8.30
2019-03-29T21:13:17.405Z,8.20
2019-03-29T21:15:48.335Z,8.20
2019-03-29T21:18:19.381Z,8.20
2019-03-29T21:20:50.301Z,8.20
2019-03-29T21:23:21.172Z,8.20
2019-03-29T21:25:52.120Z,8.10
2019-03-29T21:28:23.027Z,8.00
2019-03-29T21:30:53.941Z,7.80
2019-03-29T21:33:24.864Z,7.90
2019-03-29T21:35:56.975Z,7.80
2019-03-29T21:38:27.863Z,7.80
2019-03-29T21:40:58.804Z,7.80
2019-03-29T21:43:29.691Z,7.80
2019-03-29T21:46:00.608Z,7.80
2019-03-29T21:48:31.636Z,7.80
2019-03-29T21:51:05.332Z,7.60
2019-03-29T21:53:37.691Z,7.60
2019-03-29T21:56:08.609Z,7.70
2019-03-29T21:58:39.645Z,7.60
2019-03-29T22:01:10.747Z,7.60
2019-03-29T22:03:41.933Z,7.60
2019-03-29T22:06:13.152Z,7.60
2019-03-29T22:08:44.106Z,7.60
2019-03-29T22:11:15.057Z,7.50
2019-03-29T22:13:45.929Z,7.50
2019-03-29T22:16:16.860Z,7.40
2019-03-29T22:18:48.775Z,7.40
2019-03-29T22:21:19.665Z,7.30
2019-03-29T22:23:50.552Z,7.30
2019-03-29T22:26:21.469Z,7.20
2019-03-29T22:28:52.368Z,7.10
2019-03-29T22:31:23.270Z,7.10
2019-03-29T22:33:54.137Z,7.10
2019-03-29T22:36:25.116Z,7.10
2019-03-29T22:38:56.140Z,7.10
2019-03-29T22:41:27.054Z,7.10
2019-03-29T22:43:57.946Z,7.10
2019-03-29T22:46:28.962Z,7.10
2019-03-29T22:48:59.856Z,7.10
2019-03-29T22:51:30.810Z,7.10
2019-03-29T22:54:02.772Z,7.00
2019-03-29T22:56:33.767Z,7.00
2019-03-29T22:59:04.641Z,7.00
2019-03-29T23:01:39.194Z,6.90
2019-03-29T23:04:10.084Z,6.90
2019-03-29T23:06:41.013Z,6.80
2019-03-29T23:09:12.200Z,6.80
2019-03-29T23:11:43.145Z,6.70
2019-03-29T23:14:14.185Z,6.80
2019-03-29T23:16:45.116Z,6.70
2019-03-29T23:19:15.980Z,6.70
2019-03-29T23:21:47.244Z,6.70
2019-03-29T23:24:19.058Z,6.70
2019-03-29T23:26:50.000Z,6.60
2019-03-29T23:29:21.146Z,6.60
2019-03-29T23:31:53.156Z,6.50
2019-03-29T23:34:24.077Z,6.50
2019-03-29T23:36:55.104Z,6.50
2019-03-29T23:39:25.982Z,6.50
2019-03-29T23:41:56.862Z,6.50
2019-03-29T23:44:27.812Z,6.40
2019-03-29T23:46:58.701Z,6.30
2019-03-29T23:49:29.564Z,6.40
2019-03-29T23:52:00.492Z,6.30
2019-03-29T23:54:31.412Z,6.30
2019-03-29T23:57:02.336Z,6.20
2019-03-29T23:59:33.222Z,6.20
